sensor_id;sensor_type;location;lat;lon;timestamp;temperature;humidity
14739;DHT22;7461;52.440;13.540;2022-12-05T00:00:22;3.20;99.90
14739;DHT22;7461;52.440;13.540;2022-12-05T00:03:31;3.20;99.90
14739;DHT22;7461;52.440;13.540;2022-12-05T00:05:50;3.20;99.90
14739;DHT22;7461;52.440;13.540;2022-12-05T00:08:19;3.30;99.90
14739;DHT22;7461;52.440;13.540;2022-12-05T00:11:00;3.30;99.90
14739;DHT22;7461;52.440;13.540;2022-12-05T00:13:28;3.30;99.90
14739;DHT22;7461;52.440;13.540;2022-12-05T00:15:57;3.30;99.90
14739;DHT22;7461;52.440;13.540;2022-12-05T00:18:25;3.30;99.90
14739;DHT22;7461;52.440;13.540;2022-12-05T00:20:53;3.30;99.90
14739;DHT22;7461;52.440;13.540;2022-12-05T00:23:27;3.30;99.90
14739;DHT22;7461;52.440;13.540;2022-12-05T00:25:54;3.30;99.90
14739;DHT22;7461;52.440;13.540;2022-12-05T00:28:21;3.30;99.90
14739;DHT22;7461;52.440;13.540;2022-12-05T00:30:48;3.30;99.90
14739;DHT22;7461;52.440;13.540;2022-12-05T00:33:17;3.30;99.90
14739;DHT22;7461;52.440;13.540;2022-12-05T00:35:51;3.30;99.90
14739;DHT22;7461;52.440;13.540;2022-12-05T00:38:18;3.30;99.90
14739;DHT22;7461;52.440;13.540;2022-12-05T00:40:49;3.30;99.90
14739;DHT22;7461;52.440;13.540;2022-12-05T00:43:16;3.30;99.90
14739;DHT22;7461;52.440;13.540;2022-12-05T00:45:43;3.30;99.90
14739;DHT22;7461;52.440;13.540;2022-12-05T00:48:10;3.30;99.90
14739;DHT22;7461;52.440;13.540;2022-12-05T00:50:36;3.30;99.90
14739;DHT22;7461;52.440;13.540;2022-12-05T00:53:03;3.30;99.90
14739;DHT22;7461;52.440;13.540;2022-12-05T00:55:47;3.30;99.90
14739;DHT22;7461;52.440;13.540;2022-12-05T00:58:17;3.30;99.90
14739;DHT22;7461;52.440;13.540;2022-12-05T01:00:51;3.30;99.90
14739;DHT22;7461;52.440;13.540;2022-12-05T01:03:18;3.30;99.90
14739;DHT22;7461;52.440;13.540;2022-12-05T01:05:45;3.30;99.90
14739;DHT22;7461;52.440;13.540;2022-12-05T01:08:12;3.30;99.90
14739;DHT22;7461;52.440;13.540;2022-12-05T01:10:43;3.40;99.90
14739;DHT22;7461;52.440;13.540;2022-12-05T01:13:23;3.30;99.90
14739;DHT22;7461;52.440;13.540;2022-12-05T01:15:54;3.40;99.90
14739;DHT22;7461;52.440;13.540;2022-12-05T01:18:22;3.30;99.90
14739;DHT22;7461;52.440;13.540;2022-12-05T01:20:50;3.40;99.90
14739;DHT22;7461;52.440;13.540;2022-12-05T01:23:21;3.40;99.90
14739;DHT22;7461;52.440;13.540;2022-12-05T01:25:59;3.30;99.90
14739;DHT22;7461;52.440;13.540;2022-12-05T01:28:33;3.40;99.90
14739;DHT22;7461;52.440;13.540;2022-12-05T01:31:17;3.40;99.90
14739;DHT22;7461;52.440;13.540;2022-12-05T01:33:50;3.30;99.90
14739;DHT22;7461;52.440;13.540;2022-12-05T01:36:40;3.40;99.90
14739;DHT22;7461;52.440;13.540;2022-12-05T01:39:20;3.40;99.90
14739;DHT22;7461;52.440;13.540;2022-12-05T01:41:49;3.30;99.90
14739;DHT22;7461;52.440;13.540;2022-12-05T01:47:27;3.30;99.90
14739;DHT22;7461;52.440;13.540;2022-12-05T01:49:57;3.40;99.90
14739;DHT22;7461;52.440;13.540;2022-12-05T01:52:30;3.40;99.90
14739;DHT22;7461;52.440;13.540;2022-12-05T01:55:06;3.40;99.90
14739;DHT22;7461;52.440;13.540;2022-12-05T01:57:39;3.40;99.90
14739;DHT22;7461;52.440;13.540;2022-12-05T02:00:23;3.40;99.90
14739;DHT22;7461;52.440;13.540;2022-12-05T02:02:57;3.40;99.90
14739;DHT22;7461;52.440;13.540;2022-12-05T02:05:28;3.40;99.90
14739;DHT22;7461;52.440;13.540;2022-12-05T02:07:57;3.40;99.90
14739;DHT22;7461;52.440;13.540;2022-12-05T02:10:32;3.30;99.90
14739;DHT22;7461;52.440;13.540;2022-12-05T02:13:07;3.40;99.90
14739;DHT22;7461;52.440;13.540;2022-12-05T02:15:44;3.40;99.90
14739;DHT22;7461;52.440;13.540;2022-12-05T02:18:24;3.40;99.90
14739;DHT22;7461;52.440;13.540;2022-12-05T02:21:06;3.40;99.90
14739;DHT22;7461;52.440;13.540;2022-12-05T02:24:02;3.40;99.90
14739;DHT22;7461;52.440;13.540;2022-12-05T02:27:07;3.40;99.90
14739;DHT22;7461;52.440;13.540;2022-12-05T02:29:56;3.40;99.90
14739;DHT22;7461;52.440;13.540;2022-12-05T02:32:44;3.40;99.90
14739;DHT22;7461;52.440;13.540;2022-12-05T02:35:26;3.40;99.90
14739;DHT22;7461;52.440;13.540;2022-12-05T02:38:03;3.40;99.90
14739;DHT22;7461;52.440;13.540;2022-12-05T02:40:40;3.40;99.90
14739;DHT22;7461;52.440;13.540;2022-12-05T02:43:15;3.40;99.90
14739;DHT22;7461;52.440;13.540;2022-12-05T02:46:00;3.40;99.90
14739;DHT22;7461;52.440;13.540;2022-12-05T02:48:46;3.40;99.90
14739;DHT22;7461;52.440;13.540;2022-12-05T02:51:20;3.40;99.90
14739;DHT22;7461;52.440;13.540;2022-12-05T02:53:52;3.40;99.90
14739;DHT22;7461;52.440;13.540;2022-12-05T02:56:25;3.40;99.90
14739;DHT22;7461;52.440;13.540;2022-12-05T02:58:55;3.40;99.90
14739;DHT22;7461;52.440;13.540;2022-12-05T03:01:30;3.40;99.90
14739;DHT22;7461;52.440;13.540;2022-12-05T03:04:00;3.40;99.90
14739;DHT22;7461;52.440;13.540;2022-12-05T03:06:31;3.40;99.90
14739;DHT22;7461;52.440;13.540;2022-12-05T03:09:07;3.40;99.90
14739;DHT22;7461;52.440;13.540;2022-12-05T03:11:46;3.40;99.90
14739;DHT22;7461;52.440;13.540;2022-12-05T03:14:17;3.40;99.90
14739;DHT22;7461;52.440;13.540;2022-12-05T03:16:50;3.40;99.90
14739;DHT22;7461;52.440;13.540;2022-12-05T03:19:20;3.40;99.90
14739;DHT22;7461;52.440;13.540;2022-12-05T03:21:54;3.50;99.90
14739;DHT22;7461;52.440;13.540;2022-12-05T03:24:22;3.50;99.90
14739;DHT22;7461;52.440;13.540;2022-12-05T03:26:55;3.50;99.90
14739;DHT22;7461;52.440;13.540;2022-12-05T03:29:26;3.40;99.90
14739;DHT22;7461;52.440;13.540;2022-12-05T03:32:05;3.40;99.90
14739;DHT22;7461;52.440;13.540;2022-12-05T03:34:44;3.40;99.90
14739;DHT22;7461;52.440;13.540;2022-12-05T03:37:15;3.40;99.90
14739;DHT22;7461;52.440;13.540;2022-12-05T03:39:48;3.40;99.90
14739;DHT22;7461;52.440;13.540;2022-12-05T03:42:23;3.40;99.90
14739;DHT22;7461;52.440;13.540;2022-12-05T03:44:56;3.40;99.90
14739;DHT22;7461;52.440;13.540;2022-12-05T03:47:30;3.40;99.90
14739;DHT22;7461;52.440;13.540;2022-12-05T03:50:04;3.40;99.90
14739;DHT22;7461;52.440;13.540;2022-12-05T03:52:37;3.50;99.90
14739;DHT22;7461;52.440;13.540;2022-12-05T03:55:07;3.50;99.90
14739;DHT22;7461;52.440;13.540;2022-12-05T03:57:41;3.50;99.90
14739;DHT22;7461;52.440;13.540;2022-12-05T04:00:11;3.50;99.90
14739;DHT22;7461;52.440;13.540;2022-12-05T04:02:48;3.50;99.90
14739;DHT22;7461;52.440;13.540;2022-12-05T04:05:20;3.50;99.90
14739;DHT22;7461;52.440;13.540;2022-12-05T04:07:52;3.50;99.90
14739;DHT22;7461;52.440;13.540;2022-12-05T04:10:22;3.50;99.90
14739;DHT22;7461;52.440;13.540;2022-12-05T04:12:53;3.50;99.90
14739;DHT22;7461;52.440;13.540;2022-12-05T04:15:28;3.50;99.90
14739;DHT22;7461;52.440;13.540;2022-12-05T04:18:19;3.40;99.90
14739;DHT22;7461;52.440;13.540;2022-12-05T04:20:48;3.50;99.90
14739;DHT22;7461;52.440;13.540;2022-12-05T04:23:33;3.50;99.90
14739;DHT22;7461;52.440;13.540;2022-12-05T04:26:05;3.50;99.90
14739;DHT22;7461;52.440;13.540;2022-12-05T04:28:40;3.50;99.90
14739;DHT22;7461;52.440;13.540;2022-12-05T04:31:13;3.50;99.90
14739;DHT22;7461;52.440;13.540;2022-12-05T04:33:48;3.50;99.90
14739;DHT22;7461;52.440;13.540;2022-12-05T04:36:21;3.50;99.90
14739;DHT22;7461;52.440;13.540;2022-12-05T04:38:50;3.50;99.90
14739;DHT22;7461;52.440;13.540;2022-12-05T04:41:23;3.60;99.90
14739;DHT22;7461;52.440;13.540;2022-12-05T04:43:53;3.50;99.90
14739;DHT22;7461;52.440;13.540;2022-12-05T04:46:23;3.50;99.90
14739;DHT22;7461;52.440;13.540;2022-12-05T04:48:55;3.50;99.90
14739;DHT22;7461;52.440;13.540;2022-12-05T04:51:24;3.50;99.90
14739;DHT22;7461;52.440;13.540;2022-12-05T04:53:54;3.50;99.90
14739;DHT22;7461;52.440;13.540;2022-12-05T04:56:26;3.50;99.90
14739;DHT22;7461;52.440;13.540;2022-12-05T04:58:54;3.50;99.90
14739;DHT22;7461;52.440;13.540;2022-12-05T05:01:25;3.50;99.90
14739;DHT22;7461;52.440;13.540;2022-12-05T05:03:57;3.50;99.90
14739;DHT22;7461;52.440;13.540;2022-12-05T05:06:25;3.50;99.90
14739;DHT22;7461;52.440;13.540;2022-12-05T05:08:55;3.50;99.90
14739;DHT22;7461;52.440;13.540;2022-12-05T05:11:23;3.50;99.90
14739;DHT22;7461;52.440;13.540;2022-12-05T05:13:51;3.50;99.90
14739;DHT22;7461;52.440;13.540;2022-12-05T05:16:20;3.50;99.90
14739;DHT22;7461;52.440;13.540;2022-12-05T05:18:48;3.50;99.90
14739;DHT22;7461;52.440;13.540;2022-12-05T05:21:19;3.50;99.90
14739;DHT22;7461;52.440;13.540;2022-12-05T05:23:47;3.50;99.90
14739;DHT22;7461;52.440;13.540;2022-12-05T05:26:14;3.50;99.90
14739;DHT22;7461;52.440;13.540;2022-12-05T05:28:41;3.50;99.90
14739;DHT22;7461;52.440;13.540;2022-12-05T05:31:08;3.60;99.90
14739;DHT22;7461;52.440;13.540;2022-12-05T05:33:35;3.60;99.90
14739;DHT22;7461;52.440;13.540;2022-12-05T05:36:04;3.60;99.90
14739;DHT22;7461;52.440;13.540;2022-12-05T05:38:35;3.50;99.90
14739;DHT22;7461;52.440;13.540;2022-12-05T05:41:03;3.50;99.90
14739;DHT22;7461;52.440;13.540;2022-12-05T05:43:30;3.60;99.90
14739;DHT22;7461;52.440;13.540;2022-12-05T05:45:57;3.50;99.90
14739;DHT22;7461;52.440;13.540;2022-12-05T05:48:24;3.50;99.90
14739;DHT22;7461;52.440;13.540;2022-12-05T05:50:51;3.50;99.90
14739;DHT22;7461;52.440;13.540;2022-12-05T05:53:18;3.50;99.90
14739;DHT22;7461;52.440;13.540;2022-12-05T05:55:46;3.50;99.90
14739;DHT22;7461;52.440;13.540;2022-12-05T05:58:13;3.60;99.90
14739;DHT22;7461;52.440;13.540;2022-12-05T06:00:40;3.50;99.90
14739;DHT22;7461;52.440;13.540;2022-12-05T06:03:07;3.50;99.90
14739;DHT22;7461;52.440;13.540;2022-12-05T06:05:35;3.50;99.90
14739;DHT22;7461;52.440;13.540;2022-12-05T06:08:03;3.60;99.90
14739;DHT22;7461;52.440;13.540;2022-12-05T06:10:30;3.60;99.90
14739;DHT22;7461;52.440;13.540;2022-12-05T06:12:59;3.60;99.90
14739;DHT22;7461;52.440;13.540;2022-12-05T06:15:26;3.60;99.90
14739;DHT22;7461;52.440;13.540;2022-12-05T06:17:53;3.50;99.90
14739;DHT22;7461;52.440;13.540;2022-12-05T06:20:20;3.50;99.90
14739;DHT22;7461;52.440;13.540;2022-12-05T06:22:46;3.50;99.90
14739;DHT22;7461;52.440;13.540;2022-12-05T06:25:13;3.50;99.90
14739;DHT22;7461;52.440;13.540;2022-12-05T06:27:40;3.50;99.90
14739;DHT22;7461;52.440;13.540;2022-12-05T06:30:09;3.50;99.90
14739;DHT22;7461;52.440;13.540;2022-12-05T06:32:36;3.50;99.90
14739;DHT22;7461;52.440;13.540;2022-12-05T06:35:04;3.50;99.90
14739;DHT22;7461;52.440;13.540;2022-12-05T06:37:39;3.50;99.90
14739;DHT22;7461;52.440;13.540;2022-12-05T06:40:07;3.60;99.90
14739;DHT22;7461;52.440;13.540;2022-12-05T06:42:34;3.60;99.90
14739;DHT22;7461;52.440;13.540;2022-12-05T06:45:01;3.60;99.90
14739;DHT22;7461;52.440;13.540;2022-12-05T06:47:29;3.60;99.90
14739;DHT22;7461;52.440;13.540;2022-12-05T06:49:57;3.60;99.90
14739;DHT22;7461;52.440;13.540;2022-12-05T06:52:23;3.60;99.90
14739;DHT22;7461;52.440;13.540;2022-12-05T06:54:50;3.60;99.90
14739;DHT22;7461;52.440;13.540;2022-12-05T06:57:17;3.50;99.90
14739;DHT22;7461;52.440;13.540;2022-12-05T06:59:44;3.50;99.90
14739;DHT22;7461;52.440;13.540;2022-12-05T07:02:12;3.50;99.90
14739;DHT22;7461;52.440;13.540;2022-12-05T07:04:39;3.50;99.90
14739;DHT22;7461;52.440;13.540;2022-12-05T07:07:06;3.50;99.90
14739;DHT22;7461;52.440;13.540;2022-12-05T07:09:33;3.50;99.90
14739;DHT22;7461;52.440;13.540;2022-12-05T07:12:14;3.50;99.90
14739;DHT22;7461;52.440;13.540;2022-12-05T07:14:41;3.50;99.90
14739;DHT22;7461;52.440;13.540;2022-12-05T07:17:09;3.50;99.90
14739;DHT22;7461;52.440;13.540;2022-12-05T07:19:35;3.50;99.90
14739;DHT22;7461;52.440;13.540;2022-12-05T07:22:04;3.60;99.90
14739;DHT22;7461;52.440;13.540;2022-12-05T07:24:31;3.60;99.90
14739;DHT22;7461;52.440;13.540;2022-12-05T07:26:58;3.60;99.90
14739;DHT22;7461;52.440;13.540;2022-12-05T07:29:25;3.60;99.90
14739;DHT22;7461;52.440;13.540;2022-12-05T07:31:53;3.60;99.90
14739;DHT22;7461;52.440;13.540;2022-12-05T07:34:20;3.60;99.90
14739;DHT22;7461;52.440;13.540;2022-12-05T07:36:47;3.50;99.90
14739;DHT22;7461;52.440;13.540;2022-12-05T07:39:15;3.50;99.90
14739;DHT22;7461;52.440;13.540;2022-12-05T07:41:42;3.50;99.90
14739;DHT22;7461;52.440;13.540;2022-12-05T07:44:10;3.50;99.90
14739;DHT22;7461;52.440;13.540;2022-12-05T07:46:38;3.50;99.90
14739;DHT22;7461;52.440;13.540;2022-12-05T07:49:06;3.60;99.90
14739;DHT22;7461;52.440;13.540;2022-12-05T07:51:34;3.50;99.90
14739;DHT22;7461;52.440;13.540;2022-12-05T07:54:01;3.50;99.90
14739;DHT22;7461;52.440;13.540;2022-12-05T07:56:29;3.50;99.90
14739;DHT22;7461;52.440;13.540;2022-12-05T07:58:56;3.50;99.90
14739;DHT22;7461;52.440;13.540;2022-12-05T08:01:25;3.50;99.90
14739;DHT22;7461;52.440;13.540;2022-12-05T08:03:53;3.50;99.90
14739;DHT22;7461;52.440;13.540;2022-12-05T08:06:23;3.50;99.90
14739;DHT22;7461;52.440;13.540;2022-12-05T08:08:51;3.50;99.90
14739;DHT22;7461;52.440;13.540;2022-12-05T08:11:20;3.50;99.90
14739;DHT22;7461;52.440;13.540;2022-12-05T08:13:49;3.50;99.90
14739;DHT22;7461;52.440;13.540;2022-12-05T08:16:17;3.50;99.90
14739;DHT22;7461;52.440;13.540;2022-12-05T08:18:45;3.60;99.90
14739;DHT22;7461;52.440;13.540;2022-12-05T08:21:14;3.60;99.90
14739;DHT22;7461;52.440;13.540;2022-12-05T08:23:42;3.60;99.90
14739;DHT22;7461;52.440;13.540;2022-12-05T08:26:11;3.60;99.90
14739;DHT22;7461;52.440;13.540;2022-12-05T08:28:39;3.50;99.90
14739;DHT22;7461;52.440;13.540;2022-12-05T08:31:09;3.50;99.90
14739;DHT22;7461;52.440;13.540;2022-12-05T08:33:36;3.50;99.90
14739;DHT22;7461;52.440;13.540;2022-12-05T08:36:05;3.50;99.90
14739;DHT22;7461;52.440;13.540;2022-12-05T08:38:32;3.50;99.90
14739;DHT22;7461;52.440;13.540;2022-12-05T08:41:00;3.50;99.90
14739;DHT22;7461;52.440;13.540;2022-12-05T08:43:27;3.50;99.90
14739;DHT22;7461;52.440;13.540;2022-12-05T08:45:54;3.50;99.90
14739;DHT22;7461;52.440;13.540;2022-12-05T08:48:24;3.50;99.90
14739;DHT22;7461;52.440;13.540;2022-12-05T08:50:51;3.50;99.90
14739;DHT22;7461;52.440;13.540;2022-12-05T08:53:18;3.50;99.90
14739;DHT22;7461;52.440;13.540;2022-12-05T08:55:45;3.50;99.90
14739;DHT22;7461;52.440;13.540;2022-12-05T08:58:12;3.50;99.90
14739;DHT22;7461;52.440;13.540;2022-12-05T09:00:40;3.50;99.90
14739;DHT22;7461;52.440;13.540;2022-12-05T09:03:08;3.50;99.90
14739;DHT22;7461;52.440;13.540;2022-12-05T09:05:37;3.50;99.90
14739;DHT22;7461;52.440;13.540;2022-12-05T09:08:04;3.50;99.90
14739;DHT22;7461;52.440;13.540;2022-12-05T09:10:31;3.50;99.90
14739;DHT22;7461;52.440;13.540;2022-12-05T09:12:58;3.60;99.90
14739;DHT22;7461;52.440;13.540;2022-12-05T09:15:25;3.60;99.90
14739;DHT22;7461;52.440;13.540;2022-12-05T09:17:52;3.60;99.90
14739;DHT22;7461;52.440;13.540;2022-12-05T09:20:19;3.60;99.90
14739;DHT22;7461;52.440;13.540;2022-12-05T09:22:47;3.60;99.90
14739;DHT22;7461;52.440;13.540;2022-12-05T09:25:14;3.60;99.90
14739;DHT22;7461;52.440;13.540;2022-12-05T09:27:41;3.60;99.90
14739;DHT22;7461;52.440;13.540;2022-12-05T09:30:09;3.60;99.90
14739;DHT22;7461;52.440;13.540;2022-12-05T09:32:36;3.60;99.90
14739;DHT22;7461;52.440;13.540;2022-12-05T09:35:03;3.60;99.90
14739;DHT22;7461;52.440;13.540;2022-12-05T09:37:30;3.60;99.90
14739;DHT22;7461;52.440;13.540;2022-12-05T09:39:59;3.60;99.90
14739;DHT22;7461;52.440;13.540;2022-12-05T09:42:41;3.60;99.90
14739;DHT22;7461;52.440;13.540;2022-12-05T09:45:23;3.60;99.90
14739;DHT22;7461;52.440;13.540;2022-12-05T09:47:59;3.60;99.90
14739;DHT22;7461;52.440;13.540;2022-12-05T09:50:28;3.70;99.90
14739;DHT22;7461;52.440;13.540;2022-12-05T09:53:03;3.70;99.90
14739;DHT22;7461;52.440;13.540;2022-12-05T09:55:37;3.60;99.90
14739;DHT22;7461;52.440;13.540;2022-12-05T09:58:21;3.60;99.90
14739;DHT22;7461;52.440;13.540;2022-12-05T10:00:53;3.70;99.90
14739;DHT22;7461;52.440;13.540;2022-12-05T10:03:29;3.60;99.90
14739;DHT22;7461;52.440;13.540;2022-12-05T10:06:06;3.60;99.90
14739;DHT22;7461;52.440;13.540;2022-12-05T10:08:41;3.60;99.90
14739;DHT22;7461;52.440;13.540;2022-12-05T10:11:16;3.60;99.90
14739;DHT22;7461;52.440;13.540;2022-12-05T10:13:50;3.60;99.90
14739;DHT22;7461;52.440;13.540;2022-12-05T10:16:23;3.60;99.90
14739;DHT22;7461;52.440;13.540;2022-12-05T10:18:57;3.60;99.90
14739;DHT22;7461;52.440;13.540;2022-12-05T10:21:30;3.60;99.90
14739;DHT22;7461;52.440;13.540;2022-12-05T10:24:00;3.60;99.90
14739;DHT22;7461;52.440;13.540;2022-12-05T10:26:32;3.60;99.90
14739;DHT22;7461;52.440;13.540;2022-12-05T10:29:08;3.60;99.90
14739;DHT22;7461;52.440;13.540;2022-12-05T10:31:37;3.70;99.90
14739;DHT22;7461;52.440;13.540;2022-12-05T10:34:11;3.70;99.90
14739;DHT22;7461;52.440;13.540;2022-12-05T10:36:46;3.70;99.90
14739;DHT22;7461;52.440;13.540;2022-12-05T10:39:16;3.70;99.90
14739;DHT22;7461;52.440;13.540;2022-12-05T10:41:45;3.70;99.90
14739;DHT22;7461;52.440;13.540;2022-12-05T10:44:12;3.70;99.90
14739;DHT22;7461;52.440;13.540;2022-12-05T10:46:39;3.70;99.90
14739;DHT22;7461;52.440;13.540;2022-12-05T10:49:09;3.70;99.90
14739;DHT22;7461;52.440;13.540;2022-12-05T10:51:37;3.70;99.90
14739;DHT22;7461;52.440;13.540;2022-12-05T10:54:14;3.80;99.90
14739;DHT22;7461;52.440;13.540;2022-12-05T10:56:45;3.80;99.90
14739;DHT22;7461;52.440;13.540;2022-12-05T10:59:14;3.80;99.90
14739;DHT22;7461;52.440;13.540;2022-12-05T11:01:47;3.80;99.90
14739;DHT22;7461;52.440;13.540;2022-12-05T11:04:21;3.80;99.90
14739;DHT22;7461;52.440;13.540;2022-12-05T11:06:50;3.80;99.90
14739;DHT22;7461;52.440;13.540;2022-12-05T11:09:20;3.80;99.90
14739;DHT22;7461;52.440;13.540;2022-12-05T11:12:05;3.80;99.90
14739;DHT22;7461;52.440;13.540;2022-12-05T11:14:32;3.80;99.90
14739;DHT22;7461;52.440;13.540;2022-12-05T11:17:02;3.80;99.90
14739;DHT22;7461;52.440;13.540;2022-12-05T11:19:31;3.80;99.90
14739;DHT22;7461;52.440;13.540;2022-12-05T11:21:59;3.80;99.90
14739;DHT22;7461;52.440;13.540;2022-12-05T11:24:27;3.80;99.90
14739;DHT22;7461;52.440;13.540;2022-12-05T11:26:57;3.80;99.90
14739;DHT22;7461;52.440;13.540;2022-12-05T11:29:34;3.80;99.90
14739;DHT22;7461;52.440;13.540;2022-12-05T11:32:02;3.90;99.90
14739;DHT22;7461;52.440;13.540;2022-12-05T11:34:34;3.90;99.90
14739;DHT22;7461;52.440;13.540;2022-12-05T11:37:09;3.90;99.90
14739;DHT22;7461;52.440;13.540;2022-12-05T11:39:38;3.90;99.90
14739;DHT22;7461;52.440;13.540;2022-12-05T11:42:20;3.90;99.90
14739;DHT22;7461;52.440;13.540;2022-12-05T11:45:03;3.90;99.90
14739;DHT22;7461;52.440;13.540;2022-12-05T11:47:55;3.90;99.90
14739;DHT22;7461;52.440;13.540;2022-12-05T11:50:39;3.90;99.90
14739;DHT22;7461;52.440;13.540;2022-12-05T11:53:21;3.90;99.90
14739;DHT22;7461;52.440;13.540;2022-12-05T11:55:59;3.90;99.90
14739;DHT22;7461;52.440;13.540;2022-12-05T11:58:42;3.90;99.90
14739;DHT22;7461;52.440;13.540;2022-12-05T12:01:17;4.00;99.90
14739;DHT22;7461;52.440;13.540;2022-12-05T12:04:08;4.00;99.90
14739;DHT22;7461;52.440;13.540;2022-12-05T12:06:49;4.00;99.90
14739;DHT22;7461;52.440;13.540;2022-12-05T12:09:27;4.00;99.90
14739;DHT22;7461;52.440;13.540;2022-12-05T12:12:03;4.00;99.90
14739;DHT22;7461;52.440;13.540;2022-12-05T12:14:38;4.00;99.90
14739;DHT22;7461;52.440;13.540;2022-12-05T12:17:15;4.00;99.90
14739;DHT22;7461;52.440;13.540;2022-12-05T12:23:04;4.00;99.90
14739;DHT22;7461;52.440;13.540;2022-12-05T12:25:41;4.00;99.90
14739;DHT22;7461;52.440;13.540;2022-12-05T12:28:24;4.00;99.90
14739;DHT22;7461;52.440;13.540;2022-12-05T12:31:05;4.00;99.90
14739;DHT22;7461;52.440;13.540;2022-12-05T12:33:43;3.90;99.90
14739;DHT22;7461;52.440;13.540;2022-12-05T12:36:16;3.90;99.90
14739;DHT22;7461;52.440;13.540;2022-12-05T12:38:56;3.90;99.90
14739;DHT22;7461;52.440;13.540;2022-12-05T12:41:44;4.00;99.90
14739;DHT22;7461;52.440;13.540;2022-12-05T12:44:33;4.00;99.90
14739;DHT22;7461;52.440;13.540;2022-12-05T12:47:08;4.00;99.90
14739;DHT22;7461;52.440;13.540;2022-12-05T12:49:48;4.10;99.90
14739;DHT22;7461;52.440;13.540;2022-12-05T12:52:22;4.00;99.90
14739;DHT22;7461;52.440;13.540;2022-12-05T12:57:54;4.10;99.90
14739;DHT22;7461;52.440;13.540;2022-12-05T13:00:34;4.10;99.90
14739;DHT22;7461;52.440;13.540;2022-12-05T13:03:09;4.10;99.90
14739;DHT22;7461;52.440;13.540;2022-12-05T13:05:41;4.00;99.90
14739;DHT22;7461;52.440;13.540;2022-12-05T13:08:14;4.10;99.90
14739;DHT22;7461;52.440;13.540;2022-12-05T13:10:43;4.10;99.90
14739;DHT22;7461;52.440;13.540;2022-12-05T13:13:15;4.10;99.90
14739;DHT22;7461;52.440;13.540;2022-12-05T13:15:46;4.10;99.90
14739;DHT22;7461;52.440;13.540;2022-12-05T13:18:17;4.20;99.90
14739;DHT22;7461;52.440;13.540;2022-12-05T13:20:47;4.10;99.90
14739;DHT22;7461;52.440;13.540;2022-12-05T13:23:17;4.20;99.90
14739;DHT22;7461;52.440;13.540;2022-12-05T13:25:45;4.20;99.90
14739;DHT22;7461;52.440;13.540;2022-12-05T13:28:24;4.20;99.90
14739;DHT22;7461;52.440;13.540;2022-12-05T13:30:52;4.20;99.90
14739;DHT22;7461;52.440;13.540;2022-12-05T13:33:34;4.20;99.90
14739;DHT22;7461;52.440;13.540;2022-12-05T13:36:06;4.20;99.90
14739;DHT22;7461;52.440;13.540;2022-12-05T13:38:56;4.20;99.90
14739;DHT22;7461;52.440;13.540;2022-12-05T13:41:42;4.20;99.90
14739;DHT22;7461;52.440;13.540;2022-12-05T13:44:32;4.20;99.90
14739;DHT22;7461;52.440;13.540;2022-12-05T13:47:00;4.20;99.90
14739;DHT22;7461;52.440;13.540;2022-12-05T13:49:39;4.20;99.90
14739;DHT22;7461;52.440;13.540;2022-12-05T13:52:12;4.20;99.90
14739;DHT22;7461;52.440;13.540;2022-12-05T13:54:43;4.30;99.90
14739;DHT22;7461;52.440;13.540;2022-12-05T14:00:30;4.30;99.90
14739;DHT22;7461;52.440;13.540;2022-12-05T14:03:03;4.30;99.90
14739;DHT22;7461;52.440;13.540;2022-12-05T14:05:49;4.30;99.90
14739;DHT22;7461;52.440;13.540;2022-12-05T14:11:12;4.30;99.90
14739;DHT22;7461;52.440;13.540;2022-12-05T14:13:41;4.30;99.90
14739;DHT22;7461;52.440;13.540;2022-12-05T14:22:45;4.20;99.90
14739;DHT22;7461;52.440;13.540;2022-12-05T14:25:33;4.20;99.90
14739;DHT22;7461;52.440;13.540;2022-12-05T14:28:15;4.20;99.90
14739;DHT22;7461;52.440;13.540;2022-12-05T14:31:01;4.30;99.90
14739;DHT22;7461;52.440;13.540;2022-12-05T14:33:31;4.20;99.90
14739;DHT22;7461;52.440;13.540;2022-12-05T14:36:04;4.30;99.90
14739;DHT22;7461;52.440;13.540;2022-12-05T14:38:35;4.30;99.90
14739;DHT22;7461;52.440;13.540;2022-12-05T14:41:13;4.30;99.90
14739;DHT22;7461;52.440;13.540;2022-12-05T14:43:41;4.30;99.90
14739;DHT22;7461;52.440;13.540;2022-12-05T14:46:15;4.30;99.90
14739;DHT22;7461;52.440;13.540;2022-12-05T14:48:46;4.30;99.90
14739;DHT22;7461;52.440;13.540;2022-12-05T14:51:42;4.30;99.90
14739;DHT22;7461;52.440;13.540;2022-12-05T14:54:14;4.30;99.90
14739;DHT22;7461;52.440;13.540;2022-12-05T14:56:44;4.20;99.90
14739;DHT22;7461;52.440;13.540;2022-12-05T14:59:21;4.30;99.90
14739;DHT22;7461;52.440;13.540;2022-12-05T15:01:53;4.20;99.90
14739;DHT22;7461;52.440;13.540;2022-12-05T15:04:25;4.30;99.90
14739;DHT22;7461;52.440;13.540;2022-12-05T15:06:57;4.30;99.90
14739;DHT22;7461;52.440;13.540;2022-12-05T15:09:45;4.30;99.90
14739;DHT22;7461;52.440;13.540;2022-12-05T15:12:25;4.30;99.90
14739;DHT22;7461;52.440;13.540;2022-12-05T15:14:59;4.30;99.90
14739;DHT22;7461;52.440;13.540;2022-12-05T15:17:33;4.30;99.90
14739;DHT22;7461;52.440;13.540;2022-12-05T15:20:04;4.40;99.90
14739;DHT22;7461;52.440;13.540;2022-12-05T15:22:33;4.40;99.90
14739;DHT22;7461;52.440;13.540;2022-12-05T15:25:22;4.40;99.90
14739;DHT22;7461;52.440;13.540;2022-12-05T15:27:55;4.30;99.90
14739;DHT22;7461;52.440;13.540;2022-12-05T15:30:22;4.30;99.90
14739;DHT22;7461;52.440;13.540;2022-12-05T15:32:49;4.40;99.90
14739;DHT22;7461;52.440;13.540;2022-12-05T15:35:16;4.40;99.90
14739;DHT22;7461;52.440;13.540;2022-12-05T15:37:49;4.30;99.90
14739;DHT22;7461;52.440;13.540;2022-12-05T15:40:18;4.40;99.90
14739;DHT22;7461;52.440;13.540;2022-12-05T15:42:49;4.30;99.90
14739;DHT22;7461;52.440;13.540;2022-12-05T15:45:21;4.40;99.90
14739;DHT22;7461;52.440;13.540;2022-12-05T15:47:50;4.40;99.90
14739;DHT22;7461;52.440;13.540;2022-12-05T15:50:25;4.40;99.90
14739;DHT22;7461;52.440;13.540;2022-12-05T15:52:59;4.40;99.90
14739;DHT22;7461;52.440;13.540;2022-12-05T15:55:32;4.40;99.90
14739;DHT22;7461;52.440;13.540;2022-12-05T15:58:06;4.40;99.90
14739;DHT22;7461;52.440;13.540;2022-12-05T16:00:39;4.40;99.90
14739;DHT22;7461;52.440;13.540;2022-12-05T16:03:11;4.40;99.90
14739;DHT22;7461;52.440;13.540;2022-12-05T16:05:45;4.40;99.90
14739;DHT22;7461;52.440;13.540;2022-12-05T16:08:15;4.40;99.90
14739;DHT22;7461;52.440;13.540;2022-12-05T16:10:42;4.40;99.90
14739;DHT22;7461;52.440;13.540;2022-12-05T16:13:14;4.40;99.90
14739;DHT22;7461;52.440;13.540;2022-12-05T16:15:43;4.40;99.90
14739;DHT22;7461;52.440;13.540;2022-12-05T16:18:22;4.40;99.90
14739;DHT22;7461;52.440;13.540;2022-12-05T16:20:50;4.40;99.90
14739;DHT22;7461;52.440;13.540;2022-12-05T16:23:25;4.40;99.90
14739;DHT22;7461;52.440;13.540;2022-12-05T16:25:52;4.40;99.90
14739;DHT22;7461;52.440;13.540;2022-12-05T16:28:21;4.40;99.90
14739;DHT22;7461;52.440;13.540;2022-12-05T16:30:56;4.40;99.90
14739;DHT22;7461;52.440;13.540;2022-12-05T16:33:24;4.40;99.90
14739;DHT22;7461;52.440;13.540;2022-12-05T16:35:52;4.40;99.90
14739;DHT22;7461;52.440;13.540;2022-12-05T16:38:21;4.50;99.90